sensor_id;sensor_type;location;lat;lon;timestamp;pressure;altitude;pressure_sealevel;temperature;humidity
36248;BME280;22287;50.824;5.644;2023-02-21T00:00:13;101387.91;;;9.14;78.79
36248;BME280;22287;50.824;5.644;2023-02-21T00:02:59;101378.94;;;9.13;78.58
36248;BME280;22287;50.824;5.644;2023-02-21T00:05:44;101379.88;;;9.12;79.06
36248;BME280;22287;50.824;5.644;2023-02-21T00:08:30;101378.13;;;8.99;79.02
36248;BME280;22287;50.824;5.644;2023-02-21T00:11:15;101383.91;;;8.80;80.17
36248;BME280;22287;50.824;5.644;2023-02-21T00:14:01;101376.28;;;8.60;81.15
36248;BME280;22287;50.824;5.644;2023-02-21T00:16:46;101377.72;;;8.65;81.44
36248;BME280;22287;50.824;5.644;2023-02-21T00:19:32;101381.75;;;8.72;80.56
36248;BME280;22287;50.824;5.644;2023-02-21T00:22:17;101384.13;;;8.77;80.44
36248;BME280;22287;50.824;5.644;2023-02-21T00:25:03;101375.38;;;9.25;78.50
36248;BME280;22287;50.824;5.644;2023-02-21T00:27:48;101380.31;;;9.06;78.88
36248;BME280;22287;50.824;5.644;2023-02-21T00:30:33;101385.00;;;9.29;78.06
36248;BME280;22287;50.824;5.644;2023-02-21T00:33:20;101380.59;;;8.62;80.25
36248;BME280;22287;50.824;5.644;2023-02-21T00:36:05;101373.84;;;9.09;79.47
36248;BME280;22287;50.824;5.644;2023-02-21T00:38:51;101379.28;;;9.47;77.14
36248;BME280;22287;50.824;5.644;2023-02-21T00:41:36;101380.47;;;9.42;77.05
36248;BME280;22287;50.824;5.644;2023-02-21T00:44:22;101381.09;;;9.21;78.16
36248;BME280;22287;50.824;5.644;2023-02-21T00:47:07;101377.72;;;9.17;77.77
36248;BME280;22287;50.824;5.644;2023-02-21T00:49:53;101378.84;;;9.27;78.10
36248;BME280;22287;50.824;5.644;2023-02-21T00:52:39;101369.03;;;8.87;79.05
36248;BME280;22287;50.824;5.644;2023-02-21T00:55:24;101366.94;;;9.17;79.17
36248;BME280;22287;50.824;5.644;2023-02-21T00:58:09;101371.25;;;8.95;79.75
36248;BME280;22287;50.824;5.644;2023-02-21T01:00:56;101371.88;;;8.98;79.05
36248;BME280;22287;50.824;5.644;2023-02-21T01:03:42;101369.72;;;9.03;78.92
36248;BME280;22287;50.824;5.644;2023-02-21T01:06:27;101374.03;;;8.93;79.33
36248;BME280;22287;50.824;5.644;2023-02-21T01:09:14;101359.78;;;8.91;79.55
36248;BME280;22287;50.824;5.644;2023-02-21T01:11:59;101356.75;;;8.83;79.81
36248;BME280;22287;50.824;5.644;2023-02-21T01:14:45;101361.59;;;8.78;80.28
36248;BME280;22287;50.824;5.644;2023-02-21T01:17:31;101373.34;;;9.16;78.38
36248;BME280;22287;50.824;5.644;2023-02-21T01:20:19;101366.66;;;9.47;77.40
36248;BME280;22287;50.824;5.644;2023-02-21T01:23:05;101358.75;;;9.31;77.42
36248;BME280;22287;50.824;5.644;2023-02-21T01:25:50;101367.34;;;8.86;79.38
36248;BME280;22287;50.824;5.644;2023-02-21T01:28:35;101370.97;;;9.24;78.34
36248;BME280;22287;50.824;5.644;2023-02-21T01:31:21;101367.94;;;9.16;78.18
36248;BME280;22287;50.824;5.644;2023-02-21T01:34:06;101364.25;;;9.17;78.02
36248;BME280;22287;50.824;5.644;2023-02-21T01:36:52;101366.53;;;9.23;78.17
36248;BME280;22287;50.824;5.644;2023-02-21T01:39:38;101360.78;;;9.03;79.08
36248;BME280;22287;50.824;5.644;2023-02-21T01:42:23;101369.69;;;8.78;80.17
36248;BME280;22287;50.824;5.644;2023-02-21T01:48:12;101360.69;;;9.04;78.69
36248;BME280;22287;50.824;5.644;2023-02-21T01:51:00;101358.75;;;9.31;77.50
36248;BME280;22287;50.824;5.644;2023-02-21T01:53:47;101353.34;;;9.06;78.60
36248;BME280;22287;50.824;5.644;2023-02-21T01:56:34;101356.94;;;9.32;77.49
36248;BME280;22287;50.824;5.644;2023-02-21T01:59:21;101357.69;;;9.34;77.26
36248;BME280;22287;50.824;5.644;2023-02-21T02:02:18;101360.47;;;9.20;77.45
36248;BME280;22287;50.824;5.644;2023-02-21T02:05:08;101361.22;;;9.09;77.83
36248;BME280;22287;50.824;5.644;2023-02-21T02:07:55;101350.31;;;8.98;78.66
36248;BME280;22287;50.824;5.644;2023-02-21T02:10:41;101350.88;;;9.28;77.54
36248;BME280;22287;50.824;5.644;2023-02-21T02:16:55;101356.69;;;9.10;78.51
36248;BME280;22287;50.824;5.644;2023-02-21T02:35:16;101335.25;;;9.08;78.17
36248;BME280;22287;50.824;5.644;2023-02-21T02:40:34;101335.25;;;8.69;79.39
36248;BME280;22287;50.824;5.644;2023-02-21T02:45:57;101339.50;;;8.85;79.48
36248;BME280;22287;50.824;5.644;2023-02-21T02:51:22;101335.94;;;8.72;80.03
36248;BME280;22287;50.824;5.644;2023-02-21T02:53:51;101330.09;;;8.78;79.22
36248;BME280;22287;50.824;5.644;2023-02-21T02:56:20;101323.47;;;8.97;78.84
36248;BME280;22287;50.824;5.644;2023-02-21T02:59:05;101317.41;;;8.93;78.46
36248;BME280;22287;50.824;5.644;2023-02-21T03:10:20;101308.44;;;8.80;79.15
36248;BME280;22287;50.824;5.644;2023-02-21T03:13:15;101303.75;;;8.57;80.46
36248;BME280;22287;50.824;5.644;2023-02-21T03:15:51;101304.44;;;8.73;80.32
36248;BME280;22287;50.824;5.644;2023-02-21T03:20:58;101298.50;;;8.68;80.30
36248;BME280;22287;50.824;5.644;2023-02-21T03:23:28;101291.81;;;8.61;80.07
36248;BME280;22287;50.824;5.644;2023-02-21T03:25:59;101294.44;;;8.75;80.12
36248;BME280;22287;50.824;5.644;2023-02-21T03:28:29;101297.00;;;8.76;79.78
36248;BME280;22287;50.824;5.644;2023-02-21T03:30:58;101290.91;;;9.12;78.28
36248;BME280;22287;50.824;5.644;2023-02-21T03:33:27;101297.94;;;8.63;80.10
36248;BME280;22287;50.824;5.644;2023-02-21T03:35:54;101293.47;;;8.89;79.10
36248;BME280;22287;50.824;5.644;2023-02-21T03:38:27;101302.09;;;8.94;78.46
36248;BME280;22287;50.824;5.644;2023-02-21T03:40:54;101290.03;;;8.99;78.95
36248;BME280;22287;50.824;5.644;2023-02-21T03:43:21;101297.25;;;8.86;78.78
36248;BME280;22287;50.824;5.644;2023-02-21T03:45:55;101300.63;;;8.50;80.14
36248;BME280;22287;50.824;5.644;2023-02-21T03:48:22;101299.97;;;8.59;80.72
36248;BME280;22287;50.824;5.644;2023-02-21T03:51:04;101295.19;;;8.38;80.90
36248;BME280;22287;50.824;5.644;2023-02-21T03:53:35;101292.31;;;8.26;82.25
36248;BME280;22287;50.824;5.644;2023-02-21T03:56:04;101293.91;;;8.43;80.68
36248;BME280;22287;50.824;5.644;2023-02-21T03:58:53;101288.56;;;8.56;80.45
36248;BME280;22287;50.824;5.644;2023-02-21T04:01:20;101284.59;;;8.74;79.52
36248;BME280;22287;50.824;5.644;2023-02-21T04:03:47;101291.75;;;8.75;79.74
36248;BME280;22287;50.824;5.644;2023-02-21T04:06:14;101289.59;;;8.26;81.44
36248;BME280;22287;50.824;5.644;2023-02-21T04:08:41;101281.25;;;8.58;80.08
36248;BME280;22287;50.824;5.644;2023-02-21T04:11:07;101278.13;;;7.84;82.54
36248;BME280;22287;50.824;5.644;2023-02-21T04:13:35;101274.31;;;8.54;80.79
36248;BME280;22287;50.824;5.644;2023-02-21T04:16:02;101276.16;;;8.26;81.62
36248;BME280;22287;50.824;5.644;2023-02-21T04:18:31;101269.84;;;8.67;79.92
36248;BME280;22287;50.824;5.644;2023-02-21T04:21:00;101271.66;;;8.66;80.17
36248;BME280;22287;50.824;5.644;2023-02-21T04:23:27;101272.53;;;8.27;82.02
36248;BME280;22287;50.824;5.644;2023-02-21T04:25:54;101285.34;;;7.69;84.61
36248;BME280;22287;50.824;5.644;2023-02-21T04:28:27;101281.72;;;8.23;83.13
36248;BME280;22287;50.824;5.644;2023-02-21T04:30:54;101289.91;;;7.95;83.86
36248;BME280;22287;50.824;5.644;2023-02-21T04:33:21;101292.91;;;7.77;84.96
36248;BME280;22287;50.824;5.644;2023-02-21T04:35:48;101282.66;;;8.10;84.12
36248;BME280;22287;50.824;5.644;2023-02-21T04:38:30;101282.47;;;8.79;80.32
36248;BME280;22287;50.824;5.644;2023-02-21T04:40:57;101274.28;;;8.93;79.28
36248;BME280;22287;50.824;5.644;2023-02-21T04:43:24;101280.84;;;8.76;80.05
36248;BME280;22287;50.824;5.644;2023-02-21T04:45:50;101269.38;;;8.48;80.65
36248;BME280;22287;50.824;5.644;2023-02-21T04:48:17;101270.94;;;8.38;81.63
36248;BME280;22287;50.824;5.644;2023-02-21T04:50:44;101270.13;;;8.50;81.52
36248;BME280;22287;50.824;5.644;2023-02-21T04:53:12;101268.38;;;8.36;80.99
36248;BME280;22287;50.824;5.644;2023-02-21T04:55:38;101263.66;;;8.65;80.55
36248;BME280;22287;50.824;5.644;2023-02-21T04:58:05;101263.13;;;8.60;80.72
36248;BME280;22287;50.824;5.644;2023-02-21T05:00:33;101270.00;;;8.24;81.87
36248;BME280;22287;50.824;5.644;2023-02-21T05:03:00;101255.97;;;8.34;81.95
36248;BME280;22287;50.824;5.644;2023-02-21T05:05:27;101259.69;;;8.58;81.10
36248;BME280;22287;50.824;5.644;2023-02-21T05:07:55;101259.19;;;8.78;79.82
36248;BME280;22287;50.824;5.644;2023-02-21T05:10:22;101257.25;;;8.80;79.50
36248;BME280;22287;50.824;5.644;2023-02-21T05:12:52;101255.59;;;8.65;80.33
36248;BME280;22287;50.824;5.644;2023-02-21T05:15:19;101253.56;;;8.81;79.84
36248;BME280;22287;50.824;5.644;2023-02-21T05:17:46;101254.09;;;8.34;81.60
36248;BME280;22287;50.824;5.644;2023-02-21T05:20:13;101250.59;;;8.34;82.38
36248;BME280;22287;50.824;5.644;2023-02-21T05:22:40;101263.84;;;8.37;82.30
36248;BME280;22287;50.824;5.644;2023-02-21T05:25:19;101263.94;;;8.35;82.31
36248;BME280;22287;50.824;5.644;2023-02-21T05:27:47;101261.69;;;8.42;81.51
36248;BME280;22287;50.824;5.644;2023-02-21T05:30:17;101261.84;;;8.53;81.27
36248;BME280;22287;50.824;5.644;2023-02-21T05:32:45;101260.97;;;8.52;81.57
36248;BME280;22287;50.824;5.644;2023-02-21T05:35:13;101257.94;;;8.57;81.45
36248;BME280;22287;50.824;5.644;2023-02-21T05:37:40;101260.81;;;8.93;79.46
36248;BME280;22287;50.824;5.644;2023-02-21T05:40:09;101255.78;;;8.37;80.37
36248;BME280;22287;50.824;5.644;2023-02-21T05:42:37;101254.66;;;8.91;79.10
36248;BME280;22287;50.824;5.644;2023-02-21T05:45:04;101249.13;;;8.67;80.72
36248;BME280;22287;50.824;5.644;2023-02-21T05:47:33;101252.06;;;8.77;79.90
36248;BME280;22287;50.824;5.644;2023-02-21T05:50:00;101245.06;;;8.74;79.80
36248;BME280;22287;50.824;5.644;2023-02-21T05:52:27;101249.03;;;8.81;79.16
36248;BME280;22287;50.824;5.644;2023-02-21T05:54:54;101256.03;;;8.59;80.21
36248;BME280;22287;50.824;5.644;2023-02-21T05:57:21;101258.41;;;8.76;79.43
36248;BME280;22287;50.824;5.644;2023-02-21T05:59:48;101255.41;;;8.93;78.97
36248;BME280;22287;50.824;5.644;2023-02-21T06:02:15;101260.59;;;8.96;78.54
36248;BME280;22287;50.824;5.644;2023-02-21T06:04:41;101259.72;;;8.83;79.02
36248;BME280;22287;50.824;5.644;2023-02-21T06:07:08;101265.88;;;8.33;81.17
36248;BME280;22287;50.824;5.644;2023-02-21T06:09:35;101260.47;;;8.72;79.71
36248;BME280;22287;50.824;5.644;2023-02-21T06:12:02;101262.44;;;9.08;78.28
36248;BME280;22287;50.824;5.644;2023-02-21T06:14:29;101256.16;;;8.82;78.69
36248;BME280;22287;50.824;5.644;2023-02-21T06:16:56;101265.00;;;8.72;79.46
36248;BME280;22287;50.824;5.644;2023-02-21T06:19:22;101266.50;;;8.76;79.31
36248;BME280;22287;50.824;5.644;2023-02-21T06:21:49;101265.25;;;8.94;78.73
36248;BME280;22287;50.824;5.644;2023-02-21T06:24:16;101260.16;;;8.90;78.40
36248;BME280;22287;50.824;5.644;2023-02-21T06:26:43;101257.78;;;8.85;78.54
36248;BME280;22287;50.824;5.644;2023-02-21T06:29:10;101264.25;;;8.95;77.90
36248;BME280;22287;50.824;5.644;2023-02-21T06:31:37;101253.69;;;8.92;78.00
36248;BME280;22287;50.824;5.644;2023-02-21T06:34:05;101258.59;;;8.48;79.73
36248;BME280;22287;50.824;5.644;2023-02-21T06:36:32;101258.19;;;8.27;81.05
36248;BME280;22287;50.824;5.644;2023-02-21T06:38:59;101263.66;;;8.52;80.02
36248;BME280;22287;50.824;5.644;2023-02-21T06:41:28;101267.50;;;8.21;81.73
36248;BME280;22287;50.824;5.644;2023-02-21T06:43:56;101270.53;;;8.44;80.30
36248;BME280;22287;50.824;5.644;2023-02-21T06:46:26;101270.88;;;8.52;80.19
36248;BME280;22287;50.824;5.644;2023-02-21T06:48:53;101272.94;;;8.61;80.34
36248;BME280;22287;50.824;5.644;2023-02-21T06:51:20;101260.47;;;8.33;79.91
36248;BME280;22287;50.824;5.644;2023-02-21T06:53:50;101267.31;;;8.24;81.41
36248;BME280;22287;50.824;5.644;2023-02-21T06:56:17;101272.66;;;8.78;79.29
36248;BME280;22287;50.824;5.644;2023-02-21T06:58:44;101269.06;;;8.65;79.70
36248;BME280;22287;50.824;5.644;2023-02-21T07:01:10;101271.47;;;8.43;80.43
36248;BME280;22287;50.824;5.644;2023-02-21T07:03:39;101271.22;;;8.06;81.23
36248;BME280;22287;50.824;5.644;2023-02-21T07:06:08;101275.13;;;8.68;79.80
36248;BME280;22287;50.824;5.644;2023-02-21T07:08:35;101276.06;;;8.67;78.80
36248;BME280;22287;50.824;5.644;2023-02-21T07:11:02;101265.25;;;8.42;80.67
36248;BME280;22287;50.824;5.644;2023-02-21T07:13:32;101271.75;;;8.65;79.46
36248;BME280;22287;50.824;5.644;2023-02-21T07:16:00;101277.25;;;8.63;79.43
36248;BME280;22287;50.824;5.644;2023-02-21T07:18:27;101272.41;;;8.56;79.68
36248;BME280;22287;50.824;5.644;2023-02-21T07:20:54;101268.84;;;8.55;79.77
36248;BME280;22287;50.824;5.644;2023-02-21T07:23:21;101272.44;;;7.74;83.13
36248;BME280;22287;50.824;5.644;2023-02-21T07:25:48;101269.84;;;8.27;81.88
36248;BME280;22287;50.824;5.644;2023-02-21T07:28:16;101275.84;;;8.04;82.02
36248;BME280;22287;50.824;5.644;2023-02-21T07:30:43;101282.78;;;7.94;82.58
36248;BME280;22287;50.824;5.644;2023-02-21T07:33:10;101277.72;;;8.16;81.83
36248;BME280;22287;50.824;5.644;2023-02-21T07:35:36;101276.03;;;8.42;80.55
36248;BME280;22287;50.824;5.644;2023-02-21T07:38:03;101275.94;;;8.03;81.72
36248;BME280;22287;50.824;5.644;2023-02-21T07:40:30;101271.94;;;8.49;80.61
36248;BME280;22287;50.824;5.644;2023-02-21T07:42:56;101279.06;;;8.50;80.38
36248;BME280;22287;50.824;5.644;2023-02-21T07:45:23;101276.25;;;8.25;81.17
36248;BME280;22287;50.824;5.644;2023-02-21T07:47:50;101276.25;;;8.52;79.78
36248;BME280;22287;50.824;5.644;2023-02-21T07:50:18;101279.09;;;8.09;81.38
36248;BME280;22287;50.824;5.644;2023-02-21T07:55:31;101278.72;;;8.01;82.85
36248;BME280;22287;50.824;5.644;2023-02-21T07:57:58;101279.81;;;8.25;80.71
36248;BME280;22287;50.824;5.644;2023-02-21T08:00:25;101288.34;;;8.05;81.45
36248;BME280;22287;50.824;5.644;2023-02-21T08:02:52;101289.03;;;8.36;81.14
36248;BME280;22287;50.824;5.644;2023-02-21T08:05:19;101284.16;;;7.87;82.13
36248;BME280;22287;50.824;5.644;2023-02-21T08:07:47;101288.22;;;8.07;81.69
36248;BME280;22287;50.824;5.644;2023-02-21T08:10:25;101285.81;;;8.16;81.65
36248;BME280;22287;50.824;5.644;2023-02-21T08:12:52;101283.47;;;7.98;81.57
36248;BME280;22287;50.824;5.644;2023-02-21T08:15:19;101287.50;;;7.91;82.63
36248;BME280;22287;50.824;5.644;2023-02-21T08:17:49;101292.53;;;8.09;81.53
36248;BME280;22287;50.824;5.644;2023-02-21T08:20:16;101278.41;;;8.47;79.89
36248;BME280;22287;50.824;5.644;2023-02-21T08:22:43;101279.63;;;8.28;80.58
36248;BME280;22287;50.824;5.644;2023-02-21T08:25:12;101278.88;;;8.53;79.80
36248;BME280;22287;50.824;5.644;2023-02-21T08:27:40;101267.72;;;8.18;81.50
36248;BME280;22287;50.824;5.644;2023-02-21T08:30:09;101266.44;;;8.51;79.68
36248;BME280;22287;50.824;5.644;2023-02-21T08:32:36;101269.84;;;8.13;80.95
36248;BME280;22287;50.824;5.644;2023-02-21T08:35:03;101271.09;;;7.95;81.96
36248;BME280;22287;50.824;5.644;2023-02-21T08:37:32;101269.19;;;8.10;81.64
36248;BME280;22287;50.824;5.644;2023-02-21T08:40:03;101274.78;;;8.07;82.01
36248;BME280;22287;50.824;5.644;2023-02-21T08:42:30;101266.38;;;8.25;81.17
36248;BME280;22287;50.824;5.644;2023-02-21T08:44:57;101266.94;;;8.31;81.12
36248;BME280;22287;50.824;5.644;2023-02-21T08:47:24;101263.47;;;7.88;83.00
36248;BME280;22287;50.824;5.644;2023-02-21T08:49:50;101258.81;;;8.04;82.66
36248;BME280;22287;50.824;5.644;2023-02-21T08:52:18;101265.44;;;8.12;81.51
36248;BME280;22287;50.824;5.644;2023-02-21T08:54:47;101264.81;;;8.36;80.43
36248;BME280;22287;50.824;5.644;2023-02-21T08:57:13;101265.25;;;8.42;80.04
36248;BME280;22287;50.824;5.644;2023-02-21T08:59:41;101263.78;;;8.63;78.70
36248;BME280;22287;50.824;5.644;2023-02-21T09:02:17;101251.06;;;7.99;80.87
36248;BME280;22287;50.824;5.644;2023-02-21T09:04:45;101256.94;;;8.33;80.17
36248;BME280;22287;50.824;5.644;2023-02-21T09:07:13;101260.25;;;8.09;81.20
36248;BME280;22287;50.824;5.644;2023-02-21T09:09:41;101258.53;;;8.35;80.11
36248;BME280;22287;50.824;5.644;2023-02-21T09:12:08;101257.91;;;8.17;81.25
36248;BME280;22287;50.824;5.644;2023-02-21T09:14:39;101257.69;;;8.35;81.35
36248;BME280;22287;50.824;5.644;2023-02-21T09:17:08;101260.44;;;8.60;79.40
36248;BME280;22287;50.824;5.644;2023-02-21T09:19:36;101256.00;;;8.46;79.98
36248;BME280;22287;50.824;5.644;2023-02-21T09:22:02;101252.63;;;8.16;80.76
36248;BME280;22287;50.824;5.644;2023-02-21T09:24:30;101257.50;;;8.23;80.40
36248;BME280;22287;50.824;5.644;2023-02-21T09:26:58;101251.34;;;8.21;81.09
36248;BME280;22287;50.824;5.644;2023-02-21T09:29:30;101253.63;;;8.42;80.47
36248;BME280;22287;50.824;5.644;2023-02-21T09:32:10;101254.28;;;8.58;79.48
36248;BME280;22287;50.824;5.644;2023-02-21T09:34:38;101244.34;;;8.46;80.31
36248;BME280;22287;50.824;5.644;2023-02-21T09:37:05;101251.72;;;8.69;79.32
36248;BME280;22287;50.824;5.644;2023-02-21T09:39:32;101242.94;;;8.40;80.13
36248;BME280;22287;50.824;5.644;2023-02-21T09:41:59;101241.16;;;8.78;78.67
36248;BME280;22287;50.824;5.644;2023-02-21T09:44:27;101231.47;;;8.76;78.78
36248;BME280;22287;50.824;5.644;2023-02-21T09:47:04;101235.84;;;8.52;80.12
36248;BME280;22287;50.824;5.644;2023-02-21T09:49:35;101232.06;;;8.42;80.10
36248;BME280;22287;50.824;5.644;2023-02-21T09:52:04;101228.66;;;8.65;79.95
36248;BME280;22287;50.824;5.644;2023-02-21T09:54:37;101232.66;;;8.72;79.31
36248;BME280;22287;50.824;5.644;2023-02-21T09:57:11;101230.25;;;8.55;79.59
36248;BME280;22287;50.824;5.644;2023-02-21T09:59:39;101230.13;;;8.31;80.67
36248;BME280;22287;50.824;5.644;2023-02-21T10:07:27;101230.66;;;8.49;79.62
36248;BME280;22287;50.824;5.644;2023-02-21T10:21:45;101222.72;;;8.60;79.34
36248;BME280;22287;50.824;5.644;2023-02-21T10:24:19;101221.19;;;8.43;78.87
36248;BME280;22287;50.824;5.644;2023-02-21T10:27:03;101218.19;;;8.60;79.08
36248;BME280;22287;50.824;5.644;2023-02-21T10:29:42;101224.53;;;8.47;79.00
36248;BME280;22287;50.824;5.644;2023-02-21T10:32:11;101218.53;;;8.68;78.65
36248;BME280;22287;50.824;5.644;2023-02-21T10:34:38;101221.22;;;8.56;79.40
36248;BME280;22287;50.824;5.644;2023-02-21T10:37:31;101221.50;;;8.39;80.16
36248;BME280;22287;50.824;5.644;2023-02-21T10:40:34;101217.88;;;8.65;79.31
36248;BME280;22287;50.824;5.644;2023-02-21T10:49:03;101216.31;;;8.36;80.45
36248;BME280;22287;50.824;5.644;2023-02-21T10:51:41;101217.88;;;8.52;79.52
36248;BME280;22287;50.824;5.644;2023-02-21T10:54:23;101208.56;;;8.44;79.76
36248;BME280;22287;50.824;5.644;2023-02-21T10:56:52;101217.25;;;8.74;78.83
36248;BME280;22287;50.824;5.644;2023-02-21T10:59:27;101209.00;;;8.38;79.94
36248;BME280;22287;50.824;5.644;2023-02-21T11:01:56;101212.22;;;8.43;80.70
36248;BME280;22287;50.824;5.644;2023-02-21T11:06:57;101209.19;;;8.35;81.44
36248;BME280;22287;50.824;5.644;2023-02-21T11:09:39;101199.53;;;8.57;80.88
36248;BME280;22287;50.824;5.644;2023-02-21T11:12:17;101201.06;;;8.74;80.32
36248;BME280;22287;50.824;5.644;2023-02-21T11:15:04;101203.03;;;8.97;78.38
36248;BME280;22287;50.824;5.644;2023-02-21T11:17:32;101207.22;;;9.01;77.37
36248;BME280;22287;50.824;5.644;2023-02-21T11:20:18;101203.66;;;8.88;77.92
36248;BME280;22287;50.824;5.644;2023-02-21T11:22:47;101197.41;;;8.75;78.49
36248;BME280;22287;50.824;5.644;2023-02-21T11:30:34;101190.38;;;8.60;79.94
36248;BME280;22287;50.824;5.644;2023-02-21T11:33:03;101192.75;;;8.52;79.81
36248;BME280;22287;50.824;5.644;2023-02-21T11:35:37;101191.03;;;8.76;80.09
36248;BME280;22287;50.824;5.644;2023-02-21T11:38:07;101185.13;;;8.96;79.34
36248;BME280;22287;50.824;5.644;2023-02-21T11:40:50;101179.47;;;9.24;77.29
36248;BME280;22287;50.824;5.644;2023-02-21T11:43:23;101177.81;;;9.34;76.76
36248;BME280;22287;50.824;5.644;2023-02-21T11:54:09;101167.41;;;8.92;78.76
36248;BME280;22287;50.824;5.644;2023-02-21T12:08:49;101154.09;;;8.78;79.40
36248;BME280;22287;50.824;5.644;2023-02-21T12:11:38;101145.84;;;8.92;79.41
36248;BME280;22287;50.824;5.644;2023-02-21T12:17:13;101135.75;;;8.83;78.89
36248;BME280;22287;50.824;5.644;2023-02-21T12:22:40;101149.09;;;8.97;78.29
36248;BME280;22287;50.824;5.644;2023-02-21T12:31:02;101136.41;;;9.23;77.59
36248;BME280;22287;50.824;5.644;2023-02-21T12:36:30;101123.13;;;8.83;79.45
36248;BME280;22287;50.824;5.644;2023-02-21T12:39:14;101123.56;;;8.77;79.84
36248;BME280;22287;50.824;5.644;2023-02-21T12:52:48;101107.16;;;10.00;75.45
36248;BME280;22287;50.824;5.644;2023-02-21T12:55:25;101102.03;;;10.43;74.61
36248;BME280;22287;50.824;5.644;2023-02-21T13:00:30;101098.53;;;9.61;76.79
36248;BME280;22287;50.824;5.644;2023-02-21T13:05:46;101092.69;;;9.78;76.58
36248;BME280;22287;50.824;5.644;2023-02-21T13:08:15;101089.91;;;10.14;74.09
36248;BME280;22287;50.824;5.644;2023-02-21T13:13:18;101090.69;;;10.16;74.63
36248;BME280;22287;50.824;5.644;2023-02-21T13:15:48;101085.19;;;9.70;75.76
36248;BME280;22287;50.824;5.644;2023-02-21T13:18:29;101081.75;;;10.03;76.14
36248;BME280;22287;50.824;5.644;2023-02-21T13:23:50;101078.50;;;9.87;75.08
36248;BME280;22287;50.824;5.644;2023-02-21T13:29:21;101070.47;;;10.33;74.03
36248;BME280;22287;50.824;5.644;2023-02-21T13:32:17;101061.41;;;10.10;74.77
36248;BME280;22287;50.824;5.644;2023-02-21T13:34:45;101058.00;;;10.19;75.92
36248;BME280;22287;50.824;5.644;2023-02-21T13:37:22;101056.81;;;10.45;75.01
36248;BME280;22287;50.824;5.644;2023-02-21T13:39:56;101052.53;;;10.08;75.99
36248;BME280;22287;50.824;5.644;2023-02-21T13:42:28;101046.75;;;10.81;73.36
36248;BME280;22287;50.824;5.644;2023-02-21T13:53:23;101045.25;;;10.21;75.14
36248;BME280;22287;50.824;5.644;2023-02-21T13:58:42;101028.94;;;10.56;74.10
36248;BME280;22287;50.824;5.644;2023-02-21T14:01:39;101024.72;;;10.96;71.86
36248;BME280;22287;50.824;5.644;2023-02-21T14:07:10;101024.50;;;10.77;75.33
36248;BME280;22287;50.824;5.644;2023-02-21T14:09:39;101030.53;;;10.70;72.76
36248;BME280;22287;50.824;5.644;2023-02-21T14:12:07;101023.16;;;10.60;72.90
36248;BME280;22287;50.824;5.644;2023-02-21T14:14:38;101017.63;;;10.84;72.66
36248;BME280;22287;50.824;5.644;2023-02-21T14:17:09;101003.41;;;10.71;72.49
36248;BME280;22287;50.824;5.644;2023-02-21T14:24:43;101024.50;;;10.77;72.35
36248;BME280;22287;50.824;5.644;2023-02-21T14:29:41;101009.50;;;10.95;73.20
36248;BME280;22287;50.824;5.644;2023-02-21T14:37:34;100994.50;;;10.91;71.55
36248;BME280;22287;50.824;5.644;2023-02-21T14:45:43;100990.09;;;10.90;70.64
36248;BME280;22287;50.824;5.644;2023-02-21T14:54:24;100999.13;;;10.46;72.28
36248;BME280;22287;50.824;5.644;2023-02-21T15:10:45;100993.81;;;10.56;72.43
36248;BME280;22287;50.824;5.644;2023-02-21T15:13:25;100993.44;;;10.38;72.40
36248;BME280;22287;50.824;5.644;2023-02-21T15:16:06;100996.50;;;10.23;72.16
36248;BME280;22287;50.824;5.644;2023-02-21T15:18:36;100997.75;;;10.30;73.11
36248;BME280;22287;50.824;5.644;2023-02-21T15:21:10;101003.50;;;10.25;72.59
36248;BME280;22287;50.824;5.644;2023-02-21T15:23:45;100989.50;;;10.42;72.61
36248;BME280;22287;50.824;5.644;2023-02-21T15:26:29;100993.56;;;10.15;72.24
36248;BME280;22287;50.824;5.644;2023-02-21T15:31:48;100993.41;;;10.05;73.24
36248;BME280;22287;50.824;5.644;2023-02-21T15:36:54;100986.81;;;10.20;73.04
36248;BME280;22287;50.824;5.644;2023-02-21T15:39:33;100978.31;;;10.36;73.08
36248;BME280;22287;50.824;5.644;2023-02-21T15:42:04;100980.84;;;9.93;73.30
36248;BME280;22287;50.824;5.644;2023-02-21T15:44:48;100981.84;;;10.03;72.55
36248;BME280;22287;50.824;5.644;2023-02-21T15:47:20;100978.69;;;10.20;72.63
36248;BME280;22287;50.824;5.644;2023-02-21T15:52:41;100977.09;;;9.61;74.59
36248;BME280;22287;50.824;5.644;2023-02-21T16:03:29;100977.13;;;9.72;73.95
36248;BME280;22287;50.824;5.644;2023-02-21T16:06:21;100973.81;;;9.68;73.65
36248;BME280;22287;50.824;5.644;2023-02-21T16:11:48;100972.03;;;9.91;73.73
36248;BME280;22287;50.824;5.644;2023-02-21T16:14:36;100979.59;;;9.75;73.25
36248;BME280;22287;50.824;5.644;2023-02-21T16:17:19;100964.19;;;9.53;74.83
36248;BME280;22287;50.824;5.644;2023-02-21T16:19:50;100968.50;;;9.67;73.48
36248;BME280;22287;50.824;5.644;2023-02-21T16:27:38;100959.94;;;9.73;72.86
36248;BME280;22287;50.824;5.644;2023-02-21T16:30:09;100955.53;;;9.72;73.04
36248;BME280;22287;50.824;5.644;2023-02-21T16:32:37;100956.13;;;9.75;72.66
36248;BME280;22287;50.824;5.644;2023-02-21T16:35:05;100953.59;;;9.85;72.16
36248;BME280;22287;50.824;5.644;2023-02-21T16:37:32;100953.56;;;9.74;72.59
36248;BME280;22287;50.824;5.644;2023-02-21T16:39:58;100954.06;;;9.79;72.71
36248;BME280;22287;50.824;5.644;2023-02-21T16:42:26;100950.41;;;9.80;71.67
36248;BME280;22287;50.824;5.644;2023-02-21T16:44:53;100951.84;;;9.73;72.24
36248;BME280;22287;50.824;5.644;2023-02-21T16:47:20;100951.38;;;9.79;71.46
36248;BME280;22287;50.824;5.644;2023-02-21T16:49:47;100958.19;;;9.50;72.74
36248;BME280;22287;50.824;5.644;2023-02-21T16:52:15;100950.34;;;9.58;72.67
36248;BME280;22287;50.824;5.644;2023-02-21T16:54:43;100953.50;;;9.52;72.03
36248;BME280;22287;50.824;5.644;2023-02-21T16:57:10;100954.50;;;9.62;72.30
36248;BME280;22287;50.824;5.644;2023-02-21T16:59:37;100944.47;;;9.64;72.08
36248;BME280;22287;50.824;5.644;2023-02-21T17:02:04;100945.66;;;9.49;71.73